Glenrock, Wyoming
Current Conditions -  °F | °C
As of 4:53 AM on Wednesday 28 Jan 2015 (Local Time) from KDGW Reporting Station
Clear Clear  
Wind Chill:   Ceiling: Unl
Heat Index:   Visibility: 10mi
Dew Point: -1°   Wind: 12mph
Humidity: 65%   Direction: 310°NW
Pressure: 29.99"   Gusts: NA
Location:  42.86°N, 105.87°W
Report Text: KDGW 281153Z AUTO 31010KT 10SM CLR 05/M01 A2999 RMK AO2 SLP133 T00501011 10106 20044 53006
Loading
Personal Weather Stations






























Interactive Weather Map New forecast layout! Learn more

10-Day Weather Forecast

Advertisements
Track Severe Weather on mobile